createdAt,value
2023-02-17T00:01:01.753Z,13.45
2023-02-17T00:03:28.441Z,14.57
2023-02-17T00:05:55.067Z,14.70
2023-02-17T00:08:21.699Z,15.40
2023-02-17T00:10:57.057Z,13.52
2023-02-17T00:13:23.664Z,14.98
2023-02-17T00:15:50.240Z,15.95
2023-02-17T00:18:16.836Z,16.75
2023-02-17T00:20:43.414Z,16.50
2023-02-17T00:23:10.050Z,16.65
2023-02-17T00:25:40.587Z,17.02
2023-02-17T00:28:07.706Z,17.40
2023-02-17T00:30:34.530Z,16.27
2023-02-17T00:33:01.324Z,17.33
2023-02-17T00:35:27.970Z,16.73
2023-02-17T00:37:54.638Z,16.38
2023-02-17T00:40:21.654Z,17.73
2023-02-17T00:42:48.993Z,18.05
2023-02-17T00:45:15.706Z,17.70
2023-02-17T00:47:42.653Z,17.98
2023-02-17T00:50:09.672Z,16.98
2023-02-17T00:52:36.330Z,17.75
2023-02-17T00:55:03.118Z,19.20
2023-02-17T00:57:32.317Z,17.20
2023-02-17T00:59:59.268Z,19.17
2023-02-17T01:02:25.959Z,19.83
2023-02-17T01:04:53.515Z,18.02
2023-02-17T01:07:20.515Z,17.90
2023-02-17T01:09:47.198Z,18.38
2023-02-17T01:12:14.347Z,18.52
2023-02-17T01:14:41.056Z,18.08
2023-02-17T01:17:07.717Z,17.55
2023-02-17T01:20:43.840Z,17.38
2023-02-17T01:23:11.850Z,17.50
2023-02-17T01:25:40.377Z,16.35
2023-02-17T01:28:19.841Z,16.88
2023-02-17T01:30:47.786Z,17.20
2023-02-17T01:33:14.697Z,17.40
2023-02-17T01:35:41.501Z,17.00
2023-02-17T01:38:08.108Z,17.27
2023-02-17T01:40:34.804Z,17.70
2023-02-17T01:43:02.796Z,17.92
2023-02-17T01:45:41.485Z,17.63
2023-02-17T01:48:12.917Z,18.27
2023-02-17T01:50:46.988Z,17.73
2023-02-17T01:53:16.980Z,18.45
2023-02-17T01:55:44.779Z,19.23
2023-02-17T01:58:15.802Z,20.88
2023-02-17T02:00:43.141Z,21.27
2023-02-17T02:03:36.179Z,24.80
2023-02-17T02:06:07.992Z,23.77
2023-02-17T02:08:41.455Z,22.98
2023-02-17T02:11:08.037Z,25.85
2023-02-17T02:13:34.676Z,27.83
2023-02-17T02:16:20.238Z,25.80
2023-02-17T02:19:30.322Z,25.95
2023-02-17T02:22:15.696Z,19.80
2023-02-17T02:25:07.431Z,23.77
2023-02-17T02:27:53.003Z,22.17
2023-02-17T02:30:25.564Z,22.70
2023-02-17T02:33:04.372Z,21.00
2023-02-17T02:35:51.578Z,21.63
2023-02-17T02:38:25.866Z,22.55
2023-02-17T02:41:00.109Z,21.30
2023-02-17T02:43:26.918Z,22.00
2023-02-17T02:45:53.571Z,20.83
2023-02-17T02:48:20.176Z,21.25
2023-02-17T02:50:55.919Z,18.48
2023-02-17T02:53:34.567Z,15.27
2023-02-17T02:56:28.167Z,19.13
2023-02-17T02:59:05.879Z,19.17
2023-02-17T03:02:20.176Z,19.88
2023-02-17T03:04:56.048Z,19.58
2023-02-17T03:07:31.580Z,20.42
2023-02-17T03:10:00.180Z,18.83
2023-02-17T03:12:28.142Z,19.95
2023-02-17T03:15:06.214Z,18.00
2023-02-17T03:17:34.768Z,19.13
2023-02-17T03:20:03.664Z,19.92
2023-02-17T03:22:35.219Z,19.90
2023-02-17T03:25:02.110Z,11.85
2023-02-17T03:27:28.941Z,20.65
2023-02-17T03:29:55.622Z,19.52
2023-02-17T03:32:22.502Z,19.13
2023-02-17T03:34:49.124Z,20.83
2023-02-17T03:37:15.728Z,21.90
2023-02-17T03:39:42.335Z,20.25
2023-02-17T03:42:09.102Z,21.02
2023-02-17T03:44:35.775Z,19.95
2023-02-17T03:47:02.532Z,17.23
2023-02-17T03:49:29.154Z,20.33
2023-02-17T03:51:55.741Z,15.75
2023-02-17T03:54:22.430Z,20.80
2023-02-17T03:56:48.983Z,21.77
2023-02-17T03:59:15.637Z,21.47
2023-02-17T04:01:42.450Z,15.57
2023-02-17T04:04:09.368Z,20.58
2023-02-17T04:06:36.007Z,21.13
2023-02-17T04:09:03.383Z,21.40
2023-02-17T04:11:30.024Z,20.42
2023-02-17T04:13:56.570Z,19.13
2023-02-17T04:16:23.239Z,19.75
2023-02-17T04:18:49.868Z,20.63
2023-02-17T04:21:16.634Z,15.48
2023-02-17T04:23:43.221Z,21.00
2023-02-17T04:26:09.966Z,19.77
2023-02-17T04:28:41.705Z,19.88
2023-02-17T04:31:09.084Z,14.93
2023-02-17T04:33:35.919Z,19.83
2023-02-17T04:36:02.475Z,18.48
2023-02-17T04:38:30.496Z,19.70
2023-02-17T04:40:58.193Z,18.27
2023-02-17T04:43:26.542Z,19.98
2023-02-17T04:45:53.718Z,18.77
2023-02-17T04:48:20.662Z,18.17
2023-02-17T04:50:47.445Z,19.23
2023-02-17T04:53:14.448Z,18.45
2023-02-17T04:55:41.830Z,20.10
2023-02-17T04:58:09.623Z,18.00
2023-02-17T05:00:36.813Z,18.88
2023-02-17T05:03:03.802Z,19.13
2023-02-17T05:05:31.011Z,20.13
2023-02-17T05:07:57.769Z,20.35
2023-02-17T05:10:24.395Z,19.30
2023-02-17T05:12:51.038Z,18.80
2023-02-17T05:15:18.324Z,18.00
2023-02-17T05:17:45.522Z,20.08
2023-02-17T05:20:12.166Z,14.95
2023-02-17T05:22:38.851Z,18.75
2023-02-17T05:25:05.890Z,19.23
2023-02-17T05:27:33.613Z,20.40
2023-02-17T05:30:00.312Z,19.92
2023-02-17T05:32:27.682Z,20.23
2023-02-17T05:34:54.258Z,15.35
2023-02-17T05:37:20.951Z,19.80
2023-02-17T05:39:47.516Z,20.02
2023-02-17T05:42:14.377Z,20.20
2023-02-17T05:44:41.042Z,19.48
2023-02-17T05:47:07.774Z,16.38
2023-02-17T05:49:34.458Z,19.98
2023-02-17T05:52:01.839Z,20.55
2023-02-17T05:54:28.380Z,18.60
2023-02-17T05:56:54.892Z,20.90
2023-02-17T05:59:21.574Z,20.10
2023-02-17T06:01:48.365Z,20.83
2023-02-17T06:04:15.026Z,20.02
2023-02-17T06:06:41.677Z,18.00
2023-02-17T06:09:08.326Z,18.60
2023-02-17T06:11:34.941Z,19.90
2023-02-17T06:14:01.503Z,19.75
2023-02-17T06:16:28.443Z,18.02
2023-02-17T06:18:55.031Z,16.50
2023-02-17T06:21:21.600Z,17.77
2023-02-17T06:23:48.216Z,18.67
2023-02-17T06:26:14.763Z,16.25
2023-02-17T06:28:41.391Z,19.45
2023-02-17T06:31:08.196Z,19.98
2023-02-17T06:33:35.620Z,18.98
2023-02-17T06:36:02.464Z,18.42
2023-02-17T06:38:29.048Z,17.63
2023-02-17T06:40:55.737Z,17.95
2023-02-17T06:43:22.312Z,17.92
2023-02-17T06:45:49.040Z,17.73
2023-02-17T06:48:15.662Z,18.75
2023-02-17T06:50:42.334Z,17.45
2023-02-17T06:53:09.012Z,14.88
2023-02-17T06:55:37.164Z,17.73
2023-02-17T06:58:03.929Z,16.88
2023-02-17T07:00:30.842Z,16.30
2023-02-17T07:02:57.617Z,16.17
2023-02-17T07:05:24.327Z,17.10
2023-02-17T07:07:53.182Z,16.85
2023-02-17T07:10:19.948Z,15.20
2023-02-17T07:12:46.513Z,11.10
2023-02-17T07:15:14.292Z,13.82
2023-02-17T07:17:42.172Z,16.58
2023-02-17T07:20:09.414Z,15.43
2023-02-17T07:22:36.141Z,14.48
2023-02-17T07:25:03.262Z,15.70
2023-02-17T07:27:30.191Z,16.45
2023-02-17T07:29:56.894Z,16.42
2023-02-17T07:32:23.727Z,14.82
2023-02-17T07:34:50.303Z,16.08
2023-02-17T07:37:16.911Z,13.05
2023-02-17T07:39:43.556Z,13.93
2023-02-17T07:42:10.512Z,14.65
2023-02-17T07:44:37.490Z,12.80
2023-02-17T07:47:04.292Z,14.27
2023-02-17T07:49:31.113Z,14.90
2023-02-17T07:51:57.731Z,14.07
2023-02-17T07:54:24.354Z,13.73
2023-02-17T07:56:51.008Z,13.70
2023-02-17T07:59:18.531Z,14.65
2023-02-17T08:01:45.416Z,12.32
2023-02-17T08:04:12.164Z,13.43
2023-02-17T08:06:41.931Z,13.10
2023-02-17T08:09:29.200Z,10.77
2023-02-17T08:12:14.679Z,11.77
2023-02-17T08:14:41.329Z,12.30
2023-02-17T08:17:08.265Z,12.40
2023-02-17T08:19:47.630Z,12.70
2023-02-17T08:22:17.293Z,13.10
2023-02-17T08:24:44.172Z,10.15
2023-02-17T08:27:11.143Z,12.82
2023-02-17T08:29:37.858Z,12.48
2023-02-17T08:32:04.757Z,12.77
2023-02-17T08:34:34.257Z,13.15
2023-02-17T08:37:01.817Z,13.43
2023-02-17T08:39:28.669Z,10.95
2023-02-17T08:41:55.549Z,11.68
2023-02-17T08:44:22.485Z,12.25
2023-02-17T08:46:51.016Z,10.57
2023-02-17T08:49:21.166Z,11.98
2023-02-17T08:51:48.355Z,11.73
2023-02-17T08:54:15.515Z,12.32
2023-02-17T08:56:43.458Z,11.75
2023-02-17T08:59:11.593Z,8.93
2023-02-17T09:01:39.328Z,11.45
2023-02-17T09:04:07.507Z,11.07
2023-02-17T09:06:38.397Z,11.10
2023-02-17T09:09:07.160Z,10.60
2023-02-17T09:11:33.713Z,10.75
2023-02-17T09:14:00.297Z,11.18
2023-02-17T09:16:27.112Z,11.60
2023-02-17T09:18:55.085Z,10.88
2023-02-17T09:21:22.287Z,8.32
2023-02-17T09:23:49.888Z,10.93
2023-02-17T09:26:18.999Z,11.07
2023-02-17T09:28:46.571Z,10.57
2023-02-17T09:31:22.330Z,11.68
2023-02-17T09:33:49.945Z,10.82
2023-02-17T09:36:20.182Z,10.93
2023-02-17T09:38:47.431Z,10.55
2023-02-17T09:41:19.881Z,9.52
2023-02-17T09:43:47.254Z,7.70
2023-02-17T09:46:20.611Z,11.15
2023-02-17T09:48:49.406Z,11.35
2023-02-17T09:51:39.150Z,11.27
2023-02-17T09:54:15.645Z,11.60
2023-02-17T09:56:46.129Z,11.53
2023-02-17T09:59:24.237Z,11.70
2023-02-17T10:01:52.374Z,11.38
2023-02-17T10:04:42.697Z,11.85
2023-02-17T10:07:17.484Z,11.70
2023-02-17T10:09:55.656Z,11.40
2023-02-17T10:12:27.187Z,12.52
2023-02-17T10:15:03.431Z,11.85
2023-02-17T10:17:37.748Z,8.07
2023-02-17T10:20:04.379Z,12.23
2023-02-17T10:22:32.326Z,12.85
2023-02-17T10:25:01.553Z,12.73
2023-02-17T10:27:39.866Z,12.80
2023-02-17T10:30:06.609Z,12.63
2023-02-17T10:32:50.108Z,12.00
2023-02-17T10:35:33.068Z,12.70
2023-02-17T10:38:13.973Z,12.20
2023-02-17T10:40:42.427Z,9.13
2023-02-17T10:43:10.732Z,13.75
2023-02-17T10:45:40.983Z,13.05
2023-02-17T10:48:20.894Z,12.07
2023-02-17T10:50:48.712Z,9.50
2023-02-17T10:53:20.024Z,11.23
2023-02-17T10:56:09.952Z,13.02
2023-02-17T10:58:52.461Z,12.60
2023-02-17T11:01:19.716Z,11.52
2023-02-17T11:03:46.301Z,13.10
2023-02-17T11:06:20.637Z,13.27
2023-02-17T11:08:52.013Z,8.70
2023-02-17T11:11:22.894Z,12.75
2023-02-17T11:14:08.130Z,10.27
2023-02-17T11:16:39.479Z,12.07
2023-02-17T11:19:18.509Z,9.88
2023-02-17T11:21:45.307Z,11.32
2023-02-17T11:24:12.409Z,11.02
2023-02-17T11:26:39.414Z,11.43
2023-02-17T11:29:17.595Z,11.23
2023-02-17T11:31:58.687Z,12.90
2023-02-17T11:34:30.293Z,10.85
2023-02-17T11:37:13.764Z,12.93
2023-02-17T11:39:46.789Z,10.13
2023-02-17T11:42:23.488Z,12.05
2023-02-17T11:44:51.522Z,12.27
2023-02-17T11:47:48.504Z,12.32
2023-02-17T11:50:40.921Z,9.52
2023-02-17T11:53:14.850Z,11.05
2023-02-17T11:56:02.854Z,12.55
2023-02-17T11:59:01.032Z,11.32
2023-02-17T12:02:08.533Z,9.27
2023-02-17T12:05:00.004Z,11.10
2023-02-17T12:07:35.044Z,10.68
2023-02-17T12:10:05.540Z,10.77
2023-02-17T12:13:03.201Z,11.10
2023-02-17T12:15:42.129Z,9.35
2023-02-17T12:18:33.325Z,9.35
2023-02-17T12:21:29.167Z,10.00
2023-02-17T12:24:20.287Z,9.63
2023-02-17T12:26:59.257Z,9.18
2023-02-17T12:30:10.467Z,9.45
2023-02-17T12:33:14.247Z,9.00
2023-02-17T12:35:44.647Z,8.18
2023-02-17T12:38:16.951Z,9.27
2023-02-17T12:41:07.721Z,6.88
2023-02-17T12:43:59.601Z,8.65
2023-02-17T12:46:37.043Z,6.80
2023-02-17T12:49:11.501Z,7.55
2023-02-17T12:51:43.285Z,6.85
2023-02-17T12:54:12.925Z,7.18
2023-02-17T12:56:39.477Z,5.63
2023-02-17T12:59:22.557Z,7.45
2023-02-17T13:02:13.499Z,7.75
2023-02-17T13:04:42.306Z,6.30
2023-02-17T13:07:21.421Z,7.10
2023-02-17T13:09:50.130Z,7.13
2023-02-17T13:12:23.035Z,5.88
2023-02-17T13:14:55.341Z,6.10
2023-02-17T13:17:37.462Z,6.30
2023-02-17T13:20:25.866Z,6.45
2023-02-17T13:23:04.665Z,5.93
2023-02-17T13:25:36.310Z,5.68
2023-02-17T13:28:18.100Z,8.98
2023-02-17T13:30:46.195Z,6.03
2023-02-17T13:33:30.103Z,6.25
2023-02-17T13:35:56.820Z,5.72
2023-02-17T13:38:31.357Z,4.90
2023-02-17T13:41:01.579Z,4.95
2023-02-17T13:43:30.644Z,5.38
2023-02-17T13:46:00.572Z,5.47
2023-02-17T13:48:28.676Z,5.35
2023-02-17T13:50:58.246Z,5.30
2023-02-17T13:53:43.046Z,5.45
2023-02-17T13:56:22.864Z,5.28
2023-02-17T13:58:49.542Z,5.60
2023-02-17T14:01:20.593Z,6.38
2023-02-17T14:03:52.517Z,5.88
2023-02-17T14:06:37.473Z,5.00
2023-02-17T14:09:27.466Z,6.35
2023-02-17T14:11:55.657Z,5.88
2023-02-17T14:14:29.424Z,6.47
2023-02-17T14:17:04.882Z,5.80
2023-02-17T14:19:46.102Z,5.85
2023-02-17T14:22:29.143Z,5.88
2023-02-17T14:25:08.479Z,7.55
2023-02-17T14:28:01.750Z,7.10
2023-02-17T14:30:33.341Z,7.40
2023-02-17T14:33:06.980Z,7.95
2023-02-17T14:35:35.458Z,7.70
2023-02-17T14:38:21.567Z,8.05
2023-02-17T14:40:48.741Z,8.88
2023-02-17T14:43:15.571Z,7.93
2023-02-17T14:45:42.377Z,8.15
2023-02-17T14:48:09.211Z,9.27
2023-02-17T14:50:42.285Z,8.90
2023-02-17T14:53:13.582Z,8.70
2023-02-17T14:55:50.556Z,8.98
2023-02-17T14:58:22.247Z,8.65
2023-02-17T15:00:49.393Z,8.65
2023-02-17T15:03:16.579Z,8.55
2023-02-17T15:05:44.246Z,9.63
2023-02-17T15:08:14.936Z,8.90
2023-02-17T15:10:42.292Z,8.80
2023-02-17T15:13:20.762Z,8.80
2023-02-17T15:15:49.279Z,9.60
2023-02-17T15:18:18.052Z,7.60
2023-02-17T15:20:46.975Z,8.98
2023-02-17T15:23:19.143Z,8.80
2023-02-17T15:25:46.496Z,9.80
2023-02-17T15:28:16.001Z,8.02
2023-02-17T15:30:48.583Z,6.03
2023-02-17T15:33:15.271Z,9.20
2023-02-17T15:35:43.072Z,8.02
2023-02-17T15:38:14.498Z,8.57
2023-02-17T15:40:42.293Z,8.65
2023-02-17T15:43:15.162Z,7.22
2023-02-17T15:45:41.916Z,5.80
2023-02-17T15:48:23.909Z,7.55
2023-02-17T15:50:51.042Z,7.05
2023-02-17T15:53:18.211Z,6.82
2023-02-17T15:55:45.400Z,5.80
2023-02-17T15:58:21.140Z,5.43
2023-02-17T16:00:51.058Z,6.00
2023-02-17T16:03:18.381Z,4.72
2023-02-17T16:05:45.145Z,6.20
2023-02-17T16:08:12.016Z,5.55
2023-02-17T16:10:41.381Z,6.20
2023-02-17T16:13:14.341Z,5.80
2023-02-17T16:15:41.720Z,5.88
2023-02-17T16:18:19.465Z,5.40
2023-02-17T16:20:46.117Z,4.90
2023-02-17T16:23:12.910Z,4.38
2023-02-17T16:25:43.284Z,4.80
2023-02-17T16:28:19.049Z,4.85
2023-02-17T16:30:46.367Z,3.85
2023-02-17T16:33:13.325Z,4.43
2023-02-17T16:35:42.808Z,3.20
2023-02-17T16:38:38.566Z,4.28
2023-02-17T16:41:05.408Z,3.67
2023-02-17T16:43:31.937Z,3.55
2023-02-17T16:46:01.293Z,3.50
2023-02-17T16:48:30.454Z,3.70
2023-02-17T16:50:57.536Z,3.63
2023-02-17T16:53:24.498Z,3.13
2023-02-17T16:55:53.440Z,3.00
2023-02-17T16:58:23.036Z,3.47
2023-02-17T17:00:52.532Z,2.47
2023-02-17T17:03:19.922Z,3.10
2023-02-17T17:05:46.584Z,3.03
2023-02-17T17:08:16.234Z,2.70
2023-02-17T17:10:44.563Z,2.80
2023-02-17T17:13:11.661Z,2.58
2023-02-17T17:15:44.472Z,2.30
2023-02-17T17:18:18.357Z,2.33
2023-02-17T17:20:45.305Z,2.40
2023-02-17T17:23:14.813Z,1.90
2023-02-17T17:25:45.593Z,2.60
2023-02-17T17:28:19.471Z,2.08
2023-02-17T17:30:46.663Z,1.98
2023-02-17T17:33:13.465Z,1.67
2023-02-17T17:35:40.095Z,2.20
2023-02-17T17:38:06.977Z,2.47
2023-02-17T17:40:56.210Z,2.00
2023-02-17T17:43:23.589Z,1.77
2023-02-17T17:45:51.579Z,2.08
2023-02-17T17:48:19.002Z,2.47
2023-02-17T17:50:45.822Z,1.10
2023-02-17T17:53:12.434Z,1.30
2023-02-17T17:55:38.986Z,1.08
2023-02-17T17:58:05.557Z,1.08
2023-02-17T18:00:32.295Z,1.20
2023-02-17T18:02:58.892Z,1.00
2023-02-17T18:05:25.662Z,0.75
2023-02-17T18:07:52.592Z,0.90
2023-02-17T18:10:19.228Z,0.85
2023-02-17T18:12:47.840Z,0.93
2023-02-17T18:15:15.974Z,0.85
2023-02-17T18:17:43.167Z,1.42
2023-02-17T18:20:11.884Z,1.25
2023-02-17T18:22:39.138Z,0.93
2023-02-17T18:25:06.652Z,1.10
2023-02-17T18:27:44.966Z,1.08
2023-02-17T18:30:14.786Z,0.70
2023-02-17T18:32:44.224Z,0.63
2023-02-17T18:35:11.727Z,0.90
2023-02-17T18:37:40.176Z,0.70
2023-02-17T18:40:12.418Z,0.75
2023-02-17T18:42:42.266Z,0.30
2023-02-17T18:45:09.464Z,1.02
2023-02-17T18:47:36.061Z,0.43
2023-02-17T18:50:03.255Z,0.93
2023-02-17T18:52:29.783Z,0.90
2023-02-17T18:54:56.377Z,0.60
2023-02-17T18:57:22.946Z,0.85
2023-02-17T18:59:50.135Z,0.80
2023-02-17T19:02:16.910Z,0.73
2023-02-17T19:04:43.550Z,0.88
2023-02-17T19:07:10.683Z,0.98
2023-02-17T19:09:42.245Z,0.50
2023-02-17T19:12:13.316Z,0.70
2023-02-17T19:14:41.016Z,0.63
2023-02-17T19:17:09.897Z,0.50
2023-02-17T19:19:37.623Z,0.55
2023-02-17T19:22:08.118Z,0.68
2023-02-17T19:24:36.092Z,0.75
2023-02-17T19:27:02.874Z,0.60
2023-02-17T19:29:29.577Z,0.50
2023-02-17T19:31:58.207Z,0.55
2023-02-17T19:34:25.416Z,0.68
2023-02-17T19:36:52.050Z,0.50
2023-02-17T19:39:18.844Z,0.50
2023-02-17T19:41:45.650Z,0.50
2023-02-17T19:44:13.164Z,0.70
2023-02-17T19:46:40.644Z,0.57
2023-02-17T19:49:07.627Z,0.55
2023-02-17T19:51:34.566Z,0.70
2023-02-17T19:54:01.932Z,0.73
2023-02-17T19:56:31.446Z,0.90
2023-02-17T19:58:58.783Z,0.93
2023-02-17T20:01:28.715Z,0.60
2023-02-17T20:03:56.904Z,0.68
2023-02-17T20:06:28.190Z,0.40
2023-02-17T20:09:01.195Z,0.57
2023-02-17T20:11:29.358Z,0.82
2023-02-17T20:13:58.078Z,1.35
2023-02-17T20:16:25.236Z,0.80
2023-02-17T20:18:51.862Z,0.50
2023-02-17T20:21:28.093Z,0.70
2023-02-17T20:23:55.074Z,0.70
2023-02-17T20:26:25.370Z,0.90
2023-02-17T20:28:52.606Z,0.90
2023-02-17T20:31:19.878Z,1.20
2023-02-17T20:33:46.827Z,1.08
2023-02-17T20:36:13.505Z,0.93
2023-02-17T20:38:40.886Z,0.82
2023-02-17T20:41:09.421Z,0.80
2023-02-17T20:43:38.130Z,0.80
2023-02-17T20:46:05.480Z,0.70
2023-02-17T20:48:32.861Z,0.70
2023-02-17T20:50:59.809Z,0.70
2023-02-17T20:53:26.950Z,0.70
2023-02-17T20:55:54.280Z,1.08
2023-02-17T20:58:20.878Z,0.60
2023-02-17T21:00:47.669Z,0.63
2023-02-17T21:03:14.653Z,0.73
2023-02-17T21:05:41.442Z,1.10
2023-02-17T21:08:08.114Z,0.70
2023-02-17T21:10:34.944Z,0.80
2023-02-17T21:13:01.675Z,1.00
2023-02-17T21:15:28.407Z,0.70
2023-02-17T21:17:55.060Z,0.68
2023-02-17T21:20:22.263Z,0.85
2023-02-17T21:22:49.703Z,1.05
2023-02-17T21:25:16.286Z,1.27
2023-02-17T21:27:43.099Z,1.15
2023-02-17T21:30:10.851Z,0.88
2023-02-17T21:32:38.532Z,0.82
2023-02-17T21:35:06.301Z,1.10
2023-02-17T21:37:33.975Z,0.80
2023-02-17T21:40:00.537Z,1.10
2023-02-17T21:42:46.111Z,1.00
2023-02-17T21:45:12.966Z,0.80
2023-02-17T21:47:39.594Z,1.27
2023-02-17T21:50:06.928Z,0.60
2023-02-17T21:52:33.489Z,0.77
2023-02-17T21:55:00.956Z,1.00
2023-02-17T21:57:27.608Z,0.88
2023-02-17T21:59:54.266Z,0.90
2023-02-17T22:02:20.829Z,1.30
2023-02-17T22:04:47.435Z,1.00
2023-02-17T22:07:14.023Z,1.00
2023-02-17T22:09:40.680Z,0.60
2023-02-17T22:12:07.489Z,0.90
2023-02-17T22:14:33.996Z,0.60
2023-02-17T22:17:01.023Z,0.95
2023-02-17T22:19:31.281Z,0.70
2023-02-17T22:21:58.387Z,0.60
2023-02-17T22:24:27.181Z,0.80
2023-02-17T22:26:54.451Z,0.73
2023-02-17T22:29:21.062Z,0.95
2023-02-17T22:31:50.057Z,0.80
2023-02-17T22:34:16.618Z,0.85
2023-02-17T22:36:43.327Z,0.60
2023-02-17T22:39:09.994Z,1.23
2023-02-17T22:41:36.861Z,0.70
2023-02-17T22:44:04.033Z,0.88
2023-02-17T22:46:31.018Z,0.60
2023-02-17T22:48:58.598Z,0.88
2023-02-17T22:51:31.281Z,0.88
2023-02-17T22:54:00.666Z,0.73
2023-02-17T22:56:27.277Z,1.20
2023-02-17T22:58:57.822Z,0.70
2023-02-17T23:01:24.971Z,1.17
2023-02-17T23:03:53.931Z,1.00
2023-02-17T23:06:22.123Z,0.73
2023-02-17T23:08:49.394Z,0.80
2023-02-17T23:11:19.331Z,1.88
2023-02-17T23:13:46.075Z,0.60
2023-02-17T23:16:18.799Z,0.70
2023-02-17T23:18:45.419Z,1.13
2023-02-17T23:21:13.194Z,1.00
2023-02-17T23:23:39.739Z,1.00
2023-02-17T23:26:06.868Z,0.80
2023-02-17T23:28:33.660Z,0.82
2023-02-17T23:31:00.597Z,0.95
2023-02-17T23:33:27.446Z,0.93
2023-02-17T23:35:54.020Z,1.10
2023-02-17T23:38:21.620Z,0.70
2023-02-17T23:40:52.826Z,0.85
2023-02-17T23:43:21.119Z,0.80
2023-02-17T23:45:48.372Z,0.70
2023-02-17T23:48:15.715Z,0.90
2023-02-17T23:50:42.723Z,0.80
2023-02-17T23:53:09.458Z,0.93
2023-02-17T23:55:36.052Z,1.15
2023-02-17T23:58:02.701Z,1.00
